Delta Virtual Airport Information Service

Juneau International Airport

ICAO: PAJN Country: United States
Latitude: 58.355 Longitude: -134.576
Latest Arrival : ASA75 (KSEA-PAJN) Latest Departure : ASA7006 (1B) (PAJN-PANC)


WX CaptureLIVE
Data provided by noaa.gov | Fetched at 00:49:19

METAR : PAJN 080553Z 00000KT 10SM FEW080 OVC110 01/M02 A3003

TAF : PAJN 080526Z 0806/0906 VRB05KT P6SM OVC100 FM081500 VRB05KT P6SM BCFG FEW004 SCT110 FM081900 09009KT P6SM FEW100


Runway Data for PAJN
Data provided by openaviationdata.com

Runway ID Mag Var Hdg Length Elevation Surface ILS Freq ILS Id ILS Slope
8 29 75° 8436 ft 3 ft Asphalt 109.9 IJDL 0
26 29 255° 8436 ft 3 ft Asphalt -- -- --

Juneau International Airport, United States
Use only for reference purposes



Not for navigational purposes.